Time;durP1;ratioP1;P1;durP2;ratioP2;P2;SDS_P1;SDS_P2;PMS_P1;PMS_P2;Temp;Humidity;BMP_temperature;BMP_pressure;BME280_temperature;BME280_humidity;BME280_pressure;Samples;Min_cycle;Max_cycle;Signal;HPM_P1;HPM_P2
2022/10/05 00:00:20;;;;;;;4.43;3.80;;;17.90;99.90;;;;;;1031498;28;20042;-70
2022/10/05 00:00:55;;;;;;;4.57;3.60;;;17.90;99.90;;;;;;1029962;28;20080;-72
2022/10/05 00:01:29;;;;;;;5.07;3.75;;;17.90;99.90;;;;;;1027780;28;20513;-70
2022/10/05 00:02:00;;;;;;;5.10;3.70;;;17.90;99.90;;;;;;1026983;28;20027;-72
2022/10/05 00:02:31;;;;;;;6.27;4.13;;;17.90;99.90;;;;;;1027077;28;20026;-73
2022/10/05 00:03:09;;;;;;;5.38;4.10;;;17.90;99.90;;;;;;1027470;28;20035;-73
2022/10/05 00:03:40;;;;;;;4.72;3.85;;;17.90;99.90;;;;;;1026999;28;20031;-73
2022/10/05 00:04:14;;;;;;;5.53;4.37;;;17.90;99.90;;;;;;1027251;28;20018;-70
2022/10/05 00:04:46;;;;;;;4.47;3.80;;;17.90;99.90;;;;;;1026787;28;20437;-71
2022/10/05 00:05:26;;;;;;;4.78;4.10;;;17.90;99.90;;;;;;1027337;28;20114;-73
2022/10/05 00:05:56;;;;;;;6.28;3.75;;;17.90;99.90;;;;;;1027091;28;20030;-71
2022/10/05 00:06:29;;;;;;;5.70;3.97;;;17.90;99.90;;;;;;1026897;28;20027;-71
2022/10/05 00:07:11;;;;;;;4.43;4.00;;;17.90;99.90;;;;;;1027188;28;20113;-71
2022/10/05 00:07:41;;;;;;;4.60;3.88;;;17.90;99.90;;;;;;1026851;28;20049;-72
2022/10/05 00:08:18;;;;;;;5.80;4.50;;;17.90;99.90;;;;;;1027481;28;20019;-72
2022/10/05 00:08:48;;;;;;;5.40;3.65;;;17.90;99.90;;;;;;1026543;28;20469;-71
2022/10/05 00:09:20;;;;;;;5.23;3.67;;;17.90;99.90;;;;;;1027112;28;20777;-71
2022/10/05 00:09:57;;;;;;;4.32;3.42;;;17.90;99.90;;;;;;1026752;28;20023;-70
2022/10/05 00:10:28;;;;;;;5.25;3.85;;;17.90;99.90;;;;;;1024190;28;20030;-71
2022/10/05 00:10:59;;;;;;;3.65;3.33;;;17.90;99.90;;;;;;1023071;29;20055;-71
2022/10/05 00:11:30;;;;;;;5.90;3.73;;;17.90;99.90;;;;;;1018447;29;20079;-71
2022/10/05 00:12:15;;;;;;;4.32;3.50;;;17.90;99.90;;;;;;1021363;28;20454;-71
2022/10/05 00:12:47;;;;;;;4.40;3.75;;;17.90;99.90;;;;;;1027978;28;20033;-71
2022/10/05 00:13:24;;;;;;;6.93;3.85;;;17.90;99.90;;;;;;1032710;28;20046;-72
2022/10/05 00:13:55;;;;;;;3.40;3.10;;;17.90;99.90;;;;;;1030480;28;20117;-71
2022/10/05 00:14:31;;;;;;;5.57;4.47;;;17.90;99.90;;;;;;1031018;28;20041;-74
2022/10/05 00:15:10;;;;;;;6.30;3.72;;;17.90;99.90;;;;;;1028793;28;20019;-72
2022/10/05 00:15:42;;;;;;;5.90;3.58;;;17.90;99.90;;;;;;1026603;28;20022;-70
2022/10/05 00:16:17;;;;;;;6.38;4.30;;;17.90;99.90;;;;;;1026818;28;20586;-71
2022/10/05 00:16:48;;;;;;;4.60;3.80;;;17.90;99.90;;;;;;1026341;28;20038;-72
2022/10/05 00:17:22;;;;;;;5.27;4.43;;;17.90;99.90;;;;;;1026838;28;20202;-73
2022/10/05 00:17:52;;;;;;;5.13;3.72;;;17.90;99.90;;;;;;1027389;28;20697;-73
2022/10/05 00:18:23;;;;;;;4.50;3.90;;;17.90;99.90;;;;;;1030667;28;20509;-74
2022/10/05 00:18:53;;;;;;;4.13;3.47;;;17.90;99.90;;;;;;1026417;28;20015;-72
2022/10/05 00:19:34;;;;;;;6.43;4.83;;;17.90;99.90;;;;;;1026270;28;20393;-72
2022/10/05 00:20:23;;;;;;;6.32;4.38;;;17.90;99.90;;;;;;1027296;28;20022;-72
2022/10/05 00:20:54;;;;;;;5.15;4.47;;;17.90;99.90;;;;;;1026264;28;20030;-72
2022/10/05 00:21:27;;;;;;;4.60;3.63;;;17.90;99.90;;;;;;1027180;28;20014;-72
2022/10/05 00:22:01;;;;;;;6.05;4.10;;;17.90;99.90;;;;;;1026580;28;20043;-72
2022/10/05 00:22:32;;;;;;;5.60;4.40;;;17.90;99.90;;;;;;1026830;28;20110;-72
2022/10/05 00:23:06;;;;;;;5.70;3.95;;;17.90;99.90;;;;;;1026592;28;20019;-72
2022/10/05 00:23:36;;;;;;;5.10;4.13;;;17.90;99.90;;;;;;1026860;28;20031;-72
2022/10/05 00:24:09;;;;;;;4.90;3.73;;;17.90;99.90;;;;;;1026786;28;20027;-72
2022/10/05 00:24:40;;;;;;;4.15;3.63;;;17.90;99.90;;;;;;1027101;28;20583;-72
2022/10/05 00:25:14;;;;;;;4.93;4.10;;;17.90;99.90;;;;;;1027508;28;20396;-73
2022/10/05 00:25:46;;;;;;;6.05;4.20;;;17.90;99.90;;;;;;1026910;28;20478;-71
2022/10/05 00:26:25;;;;;;;4.72;3.70;;;17.90;99.90;;;;;;1027573;28;20447;-71
2022/10/05 00:26:58;;;;;;;6.10;4.00;;;17.90;99.90;;;;;;1026367;28;20026;-73
2022/10/05 00:27:36;;;;;;;4.93;3.75;;;17.90;99.90;;;;;;1026488;28;20015;-72
2022/10/05 00:28:17;;;;;;;4.13;3.72;;;17.90;99.90;;;;;;1026718;28;20019;-71
2022/10/05 00:28:48;;;;;;;6.53;4.15;;;17.90;99.90;;;;;;1029377;28;20023;-73
2022/10/05 00:29:23;;;;;;;4.82;3.85;;;17.90;99.90;;;;;;1030571;28;20372;-71
2022/10/05 00:29:57;;;;;;;5.32;3.50;;;17.90;99.90;;;;;;1028624;28;20669;-70
2022/10/05 00:30:31;;;;;;;4.78;3.88;;;17.90;99.90;;;;;;1027424;28;20014;-71
2022/10/05 00:31:30;;;;;;;4.78;3.45;;;17.90;99.90;;;;;;1027009;28;20023;-72
2022/10/05 00:32:00;;;;;;;5.60;3.92;;;17.90;99.90;;;;;;1023224;28;20015;-71
2022/10/05 00:32:31;;;;;;;4.33;3.60;;;17.80;99.90;;;;;;1025586;28;20082;-71
2022/10/05 00:33:01;;;;;;;4.63;3.60;;;17.90;99.90;;;;;;1026739;28;20554;-72
2022/10/05 00:33:32;;;;;;;7.17;4.27;;;17.90;99.90;;;;;;1026404;28;20632;-72
2022/10/05 00:34:02;;;;;;;4.40;3.70;;;17.90;99.90;;;;;;1029313;28;20390;-71
2022/10/05 00:34:33;;;;;;;5.50;3.97;;;17.80;99.90;;;;;;1026819;28;20097;-70
2022/10/05 00:35:04;;;;;;;4.93;3.93;;;17.90;99.90;;;;;;1022649;29;20109;-71
2022/10/05 00:35:35;;;;;;;3.97;3.38;;;17.90;99.90;;;;;;1023006;28;20020;-71
2022/10/05 00:36:06;;;;;;;5.53;3.78;;;17.80;99.90;;;;;;1026691;28;20070;-71
2022/10/05 00:36:38;;;;;;;5.55;4.53;;;17.80;99.90;;;;;;1026563;28;20015;-71
2022/10/05 00:37:08;;;;;;;5.53;3.80;;;17.90;99.90;;;;;;1027637;28;20018;-70
2022/10/05 00:37:40;;;;;;;4.20;3.63;;;17.90;99.90;;;;;;1026709;28;20033;-71
2022/10/05 00:38:10;;;;;;;4.80;4.18;;;17.90;99.90;;;;;;1026911;28;21025;-71
2022/10/05 00:38:42;;;;;;;6.17;4.63;;;17.90;99.90;;;;;;1026480;28;20777;-72
2022/10/05 00:39:12;;;;;;;5.45;3.85;;;17.90;99.90;;;;;;1026628;28;20011;-71
2022/10/05 00:39:43;;;;;;;7.17;4.10;;;17.80;99.90;;;;;;1026867;28;20019;-72
2022/10/05 00:40:51;;;;;;;4.15;3.70;;;17.80;99.90;;;;;;1027290;28;20007;-71
2022/10/05 00:41:38;;;;;;;4.68;4.20;;;17.80;99.90;;;;;;1027124;28;20027;-72
2022/10/05 00:42:31;;;;;;;4.03;3.47;;;17.80;99.90;;;;;;1030313;28;20022;-71
2022/10/05 00:43:23;;;;;;;7.57;4.60;;;17.80;99.90;;;;;;1030494;28;20026;-71
2022/10/05 00:44:35;;;;;;;5.15;4.13;;;17.80;99.90;;;;;;1029110;28;20605;-71
2022/10/05 00:45:48;;;;;;;6.20;3.90;;;17.80;99.90;;;;;;1018161;28;20608;-72
2022/10/05 00:46:42;;;;;;;4.93;4.03;;;17.80;99.90;;;;;;1017679;29;20158;-72
2022/10/05 00:47:36;;;;;;;5.35;4.20;;;17.80;99.90;;;;;;1021288;29;20134;-72
2022/10/05 00:48:31;;;;;;;5.32;3.83;;;17.80;99.90;;;;;;1024531;28;20479;-71
2022/10/05 00:49:25;;;;;;;4.25;3.50;;;17.80;99.90;;;;;;1028784;28;20058;-70
2022/10/05 00:50:32;;;;;;;5.55;4.25;;;17.80;99.90;;;;;;1014664;29;20036;-73
2022/10/05 00:51:17;;;;;;;4.50;3.50;;;17.80;99.90;;;;;;1025262;28;20462;-71
2022/10/05 00:52:05;;;;;;;5.20;4.22;;;17.80;99.90;;;;;;1027591;28;20023;-72
2022/10/05 00:52:59;;;;;;;5.57;4.32;;;17.80;99.90;;;;;;1026739;28;20133;-73
2022/10/05 00:54:01;;;;;;;4.47;3.35;;;17.80;99.90;;;;;;1025315;28;20041;-70
2022/10/05 00:54:48;;;;;;;4.47;3.97;;;17.80;99.90;;;;;;1025838;28;20026;-70
2022/10/05 00:55:43;;;;;;;4.75;4.00;;;17.90;99.90;;;;;;1026620;28;20034;-72
2022/10/05 00:56:36;;;;;;;5.05;4.55;;;17.80;99.90;;;;;;1027073;28;20019;-72
2022/10/05 00:57:22;;;;;;;4.45;3.70;;;17.90;99.90;;;;;;1026662;28;20034;-73
2022/10/05 00:58:15;;;;;;;5.13;4.03;;;17.90;99.90;;;;;;1027220;28;20031;-72
2022/10/05 00:59:16;;;;;;;5.70;4.60;;;17.80;99.90;;;;;;1026687;28;20575;-73
2022/10/05 01:00:08;;;;;;;4.78;4.15;;;17.80;99.90;;;;;;1026881;28;20035;-71
2022/10/05 01:01:04;;;;;;;5.68;4.20;;;17.80;99.90;;;;;;1027280;28;20437;-72
2022/10/05 01:02:01;;;;;;;4.47;4.03;;;17.80;99.90;;;;;;1026537;28;20826;-74
2022/10/05 01:02:51;;;;;;;5.28;4.00;;;17.80;99.90;;;;;;1026927;28;20122;-70
2022/10/05 01:03:45;;;;;;;5.65;4.57;;;17.80;99.90;;;;;;1027242;28;20042;-71
2022/10/05 01:04:26;;;;;;;4.40;3.90;;;17.80;99.90;;;;;;1026986;28;20488;-70
2022/10/05 01:05:22;;;;;;;6.28;4.50;;;17.80;99.90;;;;;;1026192;28;20023;-70
2022/10/05 01:06:03;;;;;;;5.55;4.13;;;17.80;99.90;;;;;;1027010;28;20089;-70
2022/10/05 01:07:04;;;;;;;4.53;4.03;;;17.80;99.90;;;;;;1026763;28;20560;-73
2022/10/05 01:07:53;;;;;;;5.32;3.88;;;17.80;99.90;;;;;;1030443;28;20022;-71
2022/10/05 01:08:52;;;;;;;6.10;4.65;;;17.80;99.90;;;;;;1030972;28;20105;-71
2022/10/05 01:09:39;;;;;;;8.10;4.40;;;17.80;99.90;;;;;;1024871;28;20019;-72
2022/10/05 01:10:33;;;;;;;5.78;4.20;;;17.80;99.90;;;;;;1022862;28;20486;-72
2022/10/05 01:11:49;;;;;;;5.55;4.07;;;17.80;99.90;;;;;;1026710;28;20030;-72
2022/10/05 01:12:53;;;;;;;4.90;4.30;;;17.80;99.90;;;;;;1018722;29;20047;-71
2022/10/05 01:13:42;;;;;;;5.25;3.80;;;17.80;99.90;;;;;;1022545;29;20069;-71
2022/10/05 01:14:24;;;;;;;4.70;3.95;;;17.80;99.90;;;;;;1025839;28;20034;-70
2022/10/05 01:15:15;;;;;;;4.68;3.92;;;17.80;99.90;;;;;;1026835;28;20025;-71
2022/10/05 01:15:54;;;;;;;5.25;4.28;;;17.80;99.90;;;;;;1025993;28;20464;-71
2022/10/05 01:16:39;;;;;;;5.20;3.80;;;17.80;99.90;;;;;;1026630;28;20110;-70
2022/10/05 01:17:34;;;;;;;4.55;4.13;;;17.80;99.90;;;;;;1026823;28;20680;-71
2022/10/05 01:18:18;;;;;;;5.20;4.07;;;17.80;99.90;;;;;;1012385;28;20459;-71
2022/10/05 01:19:24;;;;;;;6.00;4.40;;;17.80;99.90;;;;;;1027130;28;20023;-72
2022/10/05 01:20:00;;;;;;;4.75;3.83;;;17.80;99.90;;;;;;1030996;28;20674;-71
2022/10/05 01:20:41;;;;;;;5.43;4.30;;;17.80;99.90;;;;;;1026309;28;20027;-70
2022/10/05 01:21:18;;;;;;;6.00;4.80;;;17.80;99.90;;;;;;1020798;29;20165;-71
2022/10/05 01:21:56;;;;;;;5.30;3.90;;;17.80;99.90;;;;;;1018475;29;20110;-71
2022/10/05 01:22:58;;;;;;;4.85;4.10;;;17.80;99.90;;;;;;1023089;28;20027;-72
2022/10/05 01:23:48;;;;;;;5.13;3.97;;;17.70;99.90;;;;;;1022942;29;20158;-71
2022/10/05 01:24:30;;;;;;;5.78;4.22;;;17.70;99.90;;;;;;1024779;28;20638;-71
2022/10/05 01:25:45;;;;;;;6.47;5.53;;;17.70;99.90;;;;;;1026475;28;20462;-72
2022/10/05 01:26:59;;;;;;;5.40;4.10;;;17.70;99.90;;;;;;1014174;29;20091;-70
2022/10/05 01:27:49;;;;;;;6.25;4.40;;;17.70;99.90;;;;;;1010168;29;20099;-72
2022/10/05 01:28:46;;;;;;;5.88;4.65;;;17.70;99.90;;;;;;1014568;28;20127;-71
2022/10/05 01:29:21;;;;;;;5.97;4.68;;;17.70;99.90;;;;;;1024238;28;20660;-71
2022/10/05 01:30:03;;;;;;;6.65;4.43;;;17.70;99.90;;;;;;1026711;28;20030;-72
2022/10/05 01:30:44;;;;;;;5.05;4.15;;;17.70;99.90;;;;;;1027226;28;20026;-73
2022/10/05 01:31:25;;;;;;;5.40;4.60;;;17.70;99.90;;;;;;1026125;28;20015;-73
2022/10/05 01:32:26;;;;;;;5.70;4.50;;;17.70;99.90;;;;;;1027280;28;20157;-72
2022/10/05 01:33:00;;;;;;;6.88;5.03;;;17.70;99.90;;;;;;1026721;28;20639;-73
2022/10/05 01:33:36;;;;;;;6.38;4.57;;;17.70;99.90;;;;;;1026725;28;20109;-72
2022/10/05 01:34:33;;;;;;;4.70;4.13;;;17.70;99.90;;;;;;1027081;28;20402;-72
2022/10/05 01:35:23;;;;;;;5.28;4.75;;;17.70;99.90;;;;;;1026874;28;20073;-72
2022/10/05 01:36:41;;;;;;;5.82;4.40;;;17.70;99.90;;;;;;1027359;28;20369;-72
2022/10/05 01:37:32;;;;;;;6.30;4.80;;;17.70;99.90;;;;;;1014758;29;20074;-73
2022/10/05 01:38:18;;;;;;;5.97;4.70;;;17.70;99.90;;;;;;1010456;29;20036;-72
2022/10/05 01:39:19;;;;;;;6.53;4.60;;;17.70;99.90;;;;;;1006401;29;20025;-72
2022/10/05 01:40:30;;;;;;;6.05;3.80;;;17.70;99.90;;;;;;1012648;29;20028;-71
2022/10/05 01:41:28;;;;;;;6.55;4.72;;;17.70;99.90;;;;;;1008233;29;20028;-73
2022/10/05 01:42:24;;;;;;;5.15;4.63;;;17.70;99.90;;;;;;1010310;29;20538;-72
2022/10/05 01:43:02;;;;;;;6.72;4.53;;;17.70;99.90;;;;;;1004670;29;20078;-71
2022/10/05 01:43:53;;;;;;;7.38;4.40;;;17.70;99.90;;;;;;1019618;28;20032;-71
2022/10/05 01:44:38;;;;;;;6.57;4.80;;;17.70;99.90;;;;;;1026319;28;20073;-71
2022/10/05 01:45:53;;;;;;;5.20;4.50;;;17.70;99.90;;;;;;1027263;28;20023;-70
2022/10/05 01:46:29;;;;;;;5.65;4.82;;;17.70;99.90;;;;;;1016988;29;20482;-71
2022/10/05 01:47:30;;;;;;;6.40;4.53;;;17.70;99.90;;;;;;1014087;29;20087;-72
2022/10/05 01:48:16;;;;;;;6.93;4.13;;;17.70;99.90;;;;;;1019927;28;20023;-72
2022/10/05 01:49:12;;;;;;;6.53;4.68;;;17.70;99.90;;;;;;1027014;28;20015;-70
2022/10/05 01:49:56;;;;;;;6.20;5.32;;;17.70;99.90;;;;;;1023627;28;20011;-71
2022/10/05 01:50:58;;;;;;;6.55;4.95;;;17.70;99.90;;;;;;1022636;29;20034;-72
2022/10/05 01:51:46;;;;;;;7.00;5.05;;;17.70;99.90;;;;;;1018686;28;20017;-71
2022/10/05 01:52:23;;;;;;;5.57;4.13;;;17.70;99.90;;;;;;1026597;28;20023;-71
2022/10/05 01:53:23;;;;;;;7.53;4.55;;;17.70;99.90;;;;;;1030949;28;20019;-71
2022/10/05 01:54:11;;;;;;;5.57;4.20;;;17.70;99.90;;;;;;1030387;28;20062;-71
2022/10/05 01:55:00;;;;;;;4.57;4.13;;;17.70;99.90;;;;;;1028226;28;20006;-72
2022/10/05 01:55:37;;;;;;;6.78;5.05;;;17.70;99.90;;;;;;1022841;29;20011;-71
2022/10/05 01:56:14;;;;;;;6.57;4.07;;;17.70;99.90;;;;;;1022727;29;20019;-72
2022/10/05 01:57:05;;;;;;;6.45;4.18;;;17.70;99.90;;;;;;1028438;28;20031;-72
2022/10/05 01:58:22;;;;;;;7.40;5.53;;;17.70;99.90;;;;;;1026544;28;20674;-70
2022/10/05 01:58:56;;;;;;;5.53;4.45;;;17.70;99.90;;;;;;1014287;29;20862;-71
2022/10/05 01:59:26;;;;;;;5.05;4.53;;;17.70;99.90;;;;;;1014611;29;20028;-71
2022/10/05 02:00:08;;;;;;;6.27;4.13;;;17.70;99.90;;;;;;1014176;29;20017;-71
2022/10/05 02:00:53;;;;;;;5.72;4.30;;;17.70;99.90;;;;;;1014674;29;20511;-72
2022/10/05 02:01:34;;;;;;;6.28;4.55;;;17.70;99.90;;;;;;1019325;28;20643;-72
2022/10/05 02:02:15;;;;;;;4.70;4.25;;;17.70;99.90;;;;;;1027345;28;20015;-72
2022/10/05 02:03:12;;;;;;;4.93;4.35;;;17.70;99.90;;;;;;1030326;28;20109;-72
2022/10/05 02:03:48;;;;;;;5.20;4.07;;;17.70;99.90;;;;;;1030346;28;20021;-73
2022/10/05 02:04:30;;;;;;;6.60;5.18;;;17.70;99.90;;;;;;1027629;28;20013;-74
2022/10/05 02:05:10;;;;;;;5.93;4.60;;;17.60;99.90;;;;;;1026572;28;20023;-72
2022/10/05 02:05:56;;;;;;;4.82;4.32;;;17.60;99.90;;;;;;1026671;28;20378;-72
2022/10/05 02:06:35;;;;;;;5.60;4.18;;;17.60;99.90;;;;;;1022892;28;20010;-72
2022/10/05 02:07:12;;;;;;;6.40;4.68;;;17.60;99.90;;;;;;1025657;28;20027;-72
2022/10/05 02:07:50;;;;;;;7.03;4.63;;;17.60;99.90;;;;;;1026035;28;20301;-72
2022/10/05 02:08:29;;;;;;;4.72;4.15;;;17.60;99.90;;;;;;1026729;28;20413;-71
2022/10/05 02:09:24;;;;;;;5.45;4.63;;;17.60;99.90;;;;;;1028494;28;20053;-71
2022/10/05 02:10:01;;;;;;;7.03;5.03;;;17.60;99.90;;;;;;1030981;28;20038;-71
2022/10/05 02:10:48;;;;;;;5.68;4.55;;;17.60;99.90;;;;;;1030111;28;20770;-71
2022/10/05 02:11:19;;;;;;;7.53;4.88;;;17.60;99.90;;;;;;1030806;28;20034;-71
2022/10/05 02:12:01;;;;;;;7.30;4.90;;;17.60;99.90;;;;;;1030188;28;20031;-72
2022/10/05 02:12:36;;;;;;;5.43;4.80;;;17.60;99.90;;;;;;1026849;28;20019;-71
2022/10/05 02:13:33;;;;;;;6.18;4.20;;;17.60;99.90;;;;;;1024655;28;20494;-72
2022/10/05 02:14:11;;;;;;;6.63;5.05;;;17.60;99.90;;;;;;1015325;28;20036;-71
2022/10/05 02:14:46;;;;;;;5.75;4.40;;;17.60;99.90;;;;;;1022840;28;20026;-71
2022/10/05 02:15:26;;;;;;;6.18;4.68;;;17.60;99.90;;;;;;1026896;28;20466;-71
2022/10/05 02:16:02;;;;;;;6.00;4.68;;;17.60;99.90;;;;;;1030463;28;20045;-71
2022/10/05 02:16:38;;;;;;;5.25;4.13;;;17.60;99.90;;;;;;1026898;28;20051;-71
2022/10/05 02:17:31;;;;;;;6.00;4.38;;;17.60;99.90;;;;;;1026316;28;20129;-72
2022/10/05 02:18:09;;;;;;;4.88;4.05;;;17.60;99.90;;;;;;1022744;29;20035;-72
2022/10/05 02:18:48;;;;;;;5.60;4.50;;;17.60;99.90;;;;;;1022498;28;20047;-71
2022/10/05 02:19:34;;;;;;;5.32;4.05;;;17.60;99.90;;;;;;1026303;28;20521;-71
2022/10/05 02:20:09;;;;;;;6.43;4.50;;;17.60;99.90;;;;;;1026893;28;20165;-71
2022/10/05 02:20:42;;;;;;;5.32;4.18;;;17.60;99.90;;;;;;1026680;28;20027;-71
2022/10/05 02:21:13;;;;;;;5.13;4.25;;;17.60;99.90;;;;;;1030034;28;20018;-73
2022/10/05 02:21:49;;;;;;;5.05;3.85;;;17.60;99.90;;;;;;1030776;28;20517;-72
2022/10/05 02:22:34;;;;;;;4.97;3.83;;;17.60;99.90;;;;;;1030288;28;20518;-73
2022/10/05 02:23:12;;;;;;;6.72;4.75;;;17.60;99.90;;;;;;1028323;28;20031;-71
2022/10/05 02:23:44;;;;;;;5.22;4.38;;;17.60;99.90;;;;;;1029912;28;20014;-72
2022/10/05 02:24:25;;;;;;;4.43;4.00;;;17.60;99.90;;;;;;1030266;28;20023;-71
2022/10/05 02:25:00;;;;;;;6.07;4.65;;;17.60;99.90;;;;;;1022273;28;20676;-71
2022/10/05 02:25:37;;;;;;;5.72;4.13;;;17.70;99.90;;;;;;1023374;28;20053;-71
2022/10/05 02:26:10;;;;;;;8.35;4.40;;;17.70;99.90;;;;;;1022564;29;20561;-71
2022/10/05 02:26:41;;;;;;;7.30;4.72;;;17.70;99.90;;;;;;1024767;28;20482;-71
2022/10/05 02:27:16;;;;;;;6.40;4.50;;;17.70;99.90;;;;;;1025920;28;20478;-71
2022/10/05 02:27:58;;;;;;;5.55;4.38;;;17.70;99.90;;;;;;1023007;28;20102;-71
2022/10/05 02:28:38;;;;;;;5.32;4.40;;;17.70;99.90;;;;;;1023607;28;20059;-72
2022/10/05 02:29:13;;;;;;;4.68;3.95;;;17.70;99.90;;;;;;1025932;28;20074;-75
2022/10/05 02:29:47;;;;;;;5.10;4.20;;;17.70;99.90;;;;;;1027667;28;20078;-73
2022/10/05 02:30:18;;;;;;;6.38;4.65;;;17.60;99.90;;;;;;1030936;28;20058;-72
2022/10/05 02:31:02;;;;;;;9.40;4.85;;;17.60;99.90;;;;;;1031773;28;20030;-73
2022/10/05 02:31:43;;;;;;;6.97;4.55;;;17.60;99.90;;;;;;1027055;28;20041;-71
2022/10/05 02:32:21;;;;;;;4.75;4.25;;;17.60;99.90;;;;;;1023788;29;20139;-74
2022/10/05 02:33:02;;;;;;;6.55;4.60;;;17.60;99.90;;;;;;1023048;29;20046;-71
2022/10/05 02:33:34;;;;;;;5.03;4.32;;;17.60;99.90;;;;;;1023754;29;20118;-71
2022/10/05 02:34:28;;;;;;;5.40;4.65;;;17.60;99.90;;;;;;1027979;28;20024;-71
2022/10/05 02:35:03;;;;;;;5.45;4.20;;;17.60;99.90;;;;;;1027582;28;20155;-72
2022/10/05 02:35:33;;;;;;;5.30;4.40;;;17.60;99.90;;;;;;1027276;28;20022;-71
2022/10/05 02:36:28;;;;;;;5.17;4.03;;;17.60;99.90;;;;;;1031671;28;20010;-73
2022/10/05 02:37:23;;;;;;;5.57;4.97;;;17.60;99.90;;;;;;1027109;28;20433;-73
2022/10/05 02:38:03;;;;;;;4.57;4.05;;;17.60;99.90;;;;;;1027129;28;20098;-71
2022/10/05 02:38:46;;;;;;;5.13;4.45;;;17.60;99.90;;;;;;1024179;28;20130;-70
2022/10/05 02:39:31;;;;;;;5.03;4.43;;;17.60;99.90;;;;;;1022682;28;20454;-71
2022/10/05 02:40:26;;;;;;;6.68;4.55;;;17.60;99.90;;;;;;1019966;29;20020;-73
2022/10/05 02:41:15;;;;;;;4.50;4.05;;;17.60;99.90;;;;;;1025863;28;20030;-71
2022/10/05 02:42:10;;;;;;;8.73;4.78;;;17.50;99.90;;;;;;1026957;28;20030;-71
2022/10/05 02:43:28;;;;;;;6.20;4.47;;;17.50;99.90;;;;;;1025801;28;20469;-72
2022/10/05 02:44:28;;;;;;;7.10;5.20;;;17.50;99.90;;;;;;1023439;29;20023;-71
2022/10/05 02:45:18;;;;;;;5.20;4.70;;;17.50;99.90;;;;;;1009975;28;20033;-72
2022/10/05 02:46:32;;;;;;;7.45;5.15;;;17.60;99.90;;;;;;1018748;29;20026;-73
2022/10/05 02:47:33;;;;;;;6.70;4.72;;;17.60;99.90;;;;;;1003301;29;20117;-73
2022/10/05 02:48:29;;;;;;;5.88;4.38;;;17.60;99.90;;;;;;1018944;29;20372;-72
2022/10/05 02:49:23;;;;;;;6.68;4.75;;;17.50;99.90;;;;;;1019048;29;20538;-72
2022/10/05 02:50:04;;;;;;;4.55;4.13;;;17.50;99.90;;;;;;1013095;28;20532;-73
2022/10/05 02:50:48;;;;;;;6.20;4.95;;;17.50;99.90;;;;;;1027676;28;20022;-73
2022/10/05 02:51:22;;;;;;;6.13;4.95;;;17.50;99.90;;;;;;1027004;28;20143;-73
2022/10/05 02:52:11;;;;;;;5.20;4.50;;;17.50;99.90;;;;;;1027539;28;20014;-73
2022/10/05 02:52:56;;;;;;;7.57;5.30;;;17.50;99.90;;;;;;1027155;28;20109;-73
2022/10/05 02:53:49;;;;;;;5.88;4.40;;;17.50;99.90;;;;;;1030985;28;20504;-73
2022/10/05 02:55:14;;;;;;;7.00;4.55;;;17.50;99.90;;;;;;1031581;28;20018;-72
2022/10/05 02:56:15;;;;;;;6.65;4.75;;;17.50;99.90;;;;;;1015437;29;20766;-73
2022/10/05 02:57:11;;;;;;;5.55;4.65;;;17.50;99.90;;;;;;1015556;29;20016;-72
2022/10/05 02:57:58;;;;;;;5.90;4.80;;;17.50;99.90;;;;;;1014694;29;20507;-72
2022/10/05 02:58:43;;;;;;;7.40;5.32;;;17.50;99.90;;;;;;1022357;28;20058;-72
2022/10/05 02:59:14;;;;;;;5.95;4.50;;;17.50;99.90;;;;;;1027473;28;20054;-72
2022/10/05 03:00:11;;;;;;;8.97;5.10;;;17.50;99.90;;;;;;1031423;28;20018;-72
2022/10/05 03:00:49;;;;;;;5.57;4.97;;;17.50;99.90;;;;;;1027585;28;20058;-72
2022/10/05 03:01:44;;;;;;;5.30;4.43;;;17.50;99.90;;;;;;1026429;28;20011;-72
2022/10/05 03:02:34;;;;;;;5.88;4.80;;;17.50;99.90;;;;;;1023594;29;20015;-73
2022/10/05 03:03:31;;;;;;;6.43;4.90;;;17.50;99.90;;;;;;1023101;29;20019;-72
2022/10/05 03:04:19;;;;;;;7.25;4.78;;;17.50;99.90;;;;;;1021141;29;20019;-73
2022/10/05 03:05:12;;;;;;;5.68;4.75;;;17.50;99.90;;;;;;1023391;29;20062;-71
2022/10/05 03:05:54;;;;;;;5.30;4.18;;;17.50;99.90;;;;;;1024083;28;20695;-71
2022/10/05 03:06:31;;;;;;;5.78;4.50;;;17.50;99.90;;;;;;1023025;29;20023;-71
2022/10/05 03:07:12;;;;;;;7.22;5.28;;;17.60;99.90;;;;;;1021307;29;20027;-72
2022/10/05 03:08:12;;;;;;;4.60;3.60;;;17.60;99.90;;;;;;1022781;29;20074;-72
2022/10/05 03:08:48;;;;;;;5.40;4.30;;;17.60;99.90;;;;;;1028826;28;20450;-71
2022/10/05 03:09:25;;;;;;;5.45;4.57;;;17.60;99.90;;;;;;1030892;28;20031;-71
2022/10/05 03:10:08;;;;;;;5.30;4.80;;;17.60;99.90;;;;;;1027429;28;20659;-71
2022/10/05 03:11:01;;;;;;;6.88;4.78;;;17.60;99.90;;;;;;1026871;28;20026;-71
2022/10/05 03:11:53;;;;;;;5.97;4.55;;;17.60;99.90;;;;;;1027389;28;20142;-73
2022/10/05 03:12:38;;;;;;;5.05;4.53;;;17.60;99.90;;;;;;1027901;28;20082;-71
2022/10/05 03:13:18;;;;;;;5.47;4.32;;;17.60;99.90;;;;;;1023142;28;20023;-73
2022/10/05 03:14:01;;;;;;;5.90;4.38;;;17.60;99.90;;;;;;1029642;28;20031;-72
2022/10/05 03:14:41;;;;;;;7.70;4.95;;;17.60;99.90;;;;;;1030986;28;20708;-71
2022/10/05 03:15:36;;;;;;;5.25;4.47;;;17.60;99.90;;;;;;1027321;28;20019;-72
2022/10/05 03:16:46;;;;;;;8.68;5.18;;;17.60;99.90;;;;;;1023238;29;20103;-71
2022/10/05 03:17:21;;;;;;;5.78;4.55;;;17.60;99.90;;;;;;1026016;28;20129;-72
2022/10/05 03:18:26;;;;;;;4.93;4.22;;;17.60;99.90;;;;;;1031164;28;20022;-72
2022/10/05 03:19:25;;;;;;;5.65;4.65;;;17.50;99.90;;;;;;1031489;28;20511;-71
2022/10/05 03:20:39;;;;;;;8.20;5.35;;;17.60;99.90;;;;;;1010838;29;20031;-71
2022/10/05 03:22:07;;;;;;;5.15;4.65;;;17.50;99.90;;;;;;1018275;29;20024;-71
2022/10/05 03:22:43;;;;;;;6.25;5.65;;;17.60;99.90;;;;;;1010466;29;20155;-72
2022/10/05 03:23:30;;;;;;;7.93;5.70;;;17.50;99.90;;;;;;1011536;29;20475;-72
2022/10/05 03:24:37;;;;;;;5.28;4.50;;;17.50;99.90;;;;;;1010923;29;20032;-72
2022/10/05 03:25:20;;;;;;;;;;;17.50;99.90;;;;;;1011390;29;20032;-71
2022/10/05 03:26:21;;;;;;;6.47;4.93;;;17.50;99.90;;;;;;1011421;29;19908;-72
2022/10/05 03:27:13;;;;;;;7.03;4.75;;;17.50;99.90;;;;;;1011397;29;20120;-71
2022/10/05 03:28:09;;;;;;;5.38;4.72;;;17.50;99.90;;;;;;1006001;29;20080;-72
2022/10/05 03:28:55;;;;;;;5.20;4.57;;;17.50;99.90;;;;;;1018807;28;20513;-72
2022/10/05 03:29:36;;;;;;;6.50;5.10;;;17.50;99.90;;;;;;1025005;28;20023;-72
2022/10/05 03:30:16;;;;;;;6.40;5.13;;;17.50;99.90;;;;;;1023386;28;20037;-71
2022/10/05 03:31:12;;;;;;;5.80;4.70;;;17.50;99.90;;;;;;1027273;28;20019;-71
2022/10/05 03:31:55;;;;;;;6.30;4.85;;;17.50;99.90;;;;;;1026922;28;20023;-72
2022/10/05 03:32:45;;;;;;;6.47;4.78;;;17.50;99.90;;;;;;1027699;28;20405;-71
2022/10/05 03:33:29;;;;;;;5.05;4.55;;;17.50;99.90;;;;;;1022798;29;20079;-71
2022/10/05 03:34:09;;;;;;;6.05;4.60;;;17.50;99.90;;;;;;1023233;28;20482;-71
2022/10/05 03:34:52;;;;;;;5.97;5.38;;;17.50;99.90;;;;;;1027510;28;20125;-71
2022/10/05 03:35:33;;;;;;;7.80;4.82;;;17.50;99.90;;;;;;1030913;28;20077;-70
2022/10/05 03:36:13;;;;;;;6.90;4.80;;;17.50;99.90;;;;;;1027325;28;20089;-71
2022/10/05 03:36:53;;;;;;;6.50;4.88;;;17.50;99.90;;;;;;1022716;29;20027;-71
2022/10/05 03:38:13;;;;;;;5.28;4.68;;;17.50;99.90;;;;;;1019283;29;20131;-71
2022/10/05 03:39:00;;;;;;;5.88;4.85;;;17.50;99.90;;;;;;1014944;29;20151;-72
2022/10/05 03:39:40;;;;;;;5.35;4.85;;;17.50;99.90;;;;;;1021944;28;20123;-72
2022/10/05 03:40:31;;;;;;;7.32;4.35;;;17.50;99.90;;;;;;1027402;28;20081;-72
2022/10/05 03:41:59;;;;;;;7.07;5.55;;;17.50;99.90;;;;;;1022766;28;20131;-72
2022/10/05 03:42:47;;;;;;;4.90;4.40;;;17.50;99.90;;;;;;1019017;29;20531;-72
2022/10/05 03:43:30;;;;;;;5.88;4.90;;;17.50;99.90;;;;;;1022634;29;20178;-71
2022/10/05 03:44:31;;;;;;;6.20;4.97;;;17.50;99.90;;;;;;1018982;29;20035;-72
2022/10/05 03:45:19;;;;;;;7.63;5.18;;;17.50;99.90;;;;;;1018519;29;20038;-72
2022/10/05 03:46:23;;;;;;;7.97;5.22;;;17.50;99.90;;;;;;1020752;29;20031;-72
2022/10/05 03:47:12;;;;;;;6.75;5.28;;;17.50;99.90;;;;;;1022525;29;20809;-71
2022/10/05 03:47:54;;;;;;;5.45;4.60;;;17.50;99.90;;;;;;1022804;28;20027;-72
2022/10/05 03:48:32;;;;;;;5.40;4.90;;;17.50;99.90;;;;;;1024779;28;20023;-72
2022/10/05 03:49:33;;;;;;;5.53;4.88;;;17.50;99.90;;;;;;1027253;28;20114;-72
2022/10/05 03:50:42;;;;;;;8.93;5.13;;;17.50;99.90;;;;;;1025500;28;20521;-71
2022/10/05 03:51:31;;;;;;;5.82;4.65;;;17.50;99.90;;;;;;1027068;28;20051;-71
2022/10/05 03:52:17;;;;;;;8.32;4.68;;;17.50;99.90;;;;;;1027792;28;20382;-72
2022/10/05 03:52:53;;;;;;;5.78;4.55;;;17.50;99.90;;;;;;1026998;28;20597;-71
2022/10/05 03:54:04;;;;;;;6.13;4.28;;;17.50;99.90;;;;;;1027134;28;20025;-72
2022/10/05 03:54:39;;;;;;;6.03;4.95;;;17.50;99.90;;;;;;1006943;29;20037;-71
2022/10/05 03:55:23;;;;;;;5.72;4.47;;;17.50;99.90;;;;;;1009207;29;20029;-72
2022/10/05 03:56:02;;;;;;;6.07;4.53;;;17.50;99.90;;;;;;1010929;29;20071;-72